sensor_id;sensor_type;location;lat;lon;timestamp;pressure;altitude;pressure_sealevel;temperature;humidity
11648;BME280;5880;52.342;9.662;2022-09-09T00:02:27;100280.06;;;21.10;55.46
11648;BME280;5880;52.342;9.662;2022-09-09T00:05:19;100293.34;;;21.13;55.49
11648;BME280;5880;52.342;9.662;2022-09-09T00:07:54;100285.94;;;21.08;55.50
11648;BME280;5880;52.342;9.662;2022-09-09T00:10:40;100282.13;;;21.04;55.57
11648;BME280;5880;52.342;9.662;2022-09-09T00:13:19;100281.50;;;21.07;55.58
11648;BME280;5880;52.342;9.662;2022-09-09T00:16:04;100276.88;;;21.02;55.31
11648;BME280;5880;52.342;9.662;2022-09-09T00:24:45;100282.53;;;20.97;55.69
11648;BME280;5880;52.342;9.662;2022-09-09T00:29:45;100283.97;;;20.95;55.67
11648;BME280;5880;52.342;9.662;2022-09-09T00:32:17;100281.53;;;20.93;55.50
11648;BME280;5880;52.342;9.662;2022-09-09T00:35:00;100278.25;;;20.91;55.54
11648;BME280;5880;52.342;9.662;2022-09-09T00:37:29;100279.06;;;20.92;55.41
11648;BME280;5880;52.342;9.662;2022-09-09T00:40:01;100279.34;;;20.90;55.53
11648;BME280;5880;52.342;9.662;2022-09-09T00:42:43;100271.03;;;20.90;55.27
11648;BME280;5880;52.342;9.662;2022-09-09T00:48:13;100272.78;;;20.86;55.52
11648;BME280;5880;52.342;9.662;2022-09-09T00:51:00;100267.84;;;20.83;55.30
11648;BME280;5880;52.342;9.662;2022-09-09T00:59:52;100273.09;;;20.71;55.34
11648;BME280;5880;52.342;9.662;2022-09-09T01:02:43;100274.22;;;20.70;55.40
11648;BME280;5880;52.342;9.662;2022-09-09T01:07:53;100274.94;;;20.61;55.48
11648;BME280;5880;52.342;9.662;2022-09-09T01:10:51;100280.22;;;20.63;55.30
11648;BME280;5880;52.342;9.662;2022-09-09T01:13:36;100267.75;;;20.60;55.54
11648;BME280;5880;52.342;9.662;2022-09-09T01:16:06;100279.97;;;20.59;55.60
11648;BME280;5880;52.342;9.662;2022-09-09T01:18:40;100271.47;;;20.56;55.27
11648;BME280;5880;52.342;9.662;2022-09-09T01:24:36;100274.25;;;20.56;55.24
11648;BME280;5880;52.342;9.662;2022-09-09T01:27:07;100270.06;;;20.53;55.35
11648;BME280;5880;52.342;9.662;2022-09-09T01:29:35;100273.69;;;20.54;55.32
11648;BME280;5880;52.342;9.662;2022-09-09T01:32:40;100267.28;;;20.53;55.60
11648;BME280;5880;52.342;9.662;2022-09-09T01:37:41;100273.47;;;20.50;55.38
11648;BME280;5880;52.342;9.662;2022-09-09T01:40:09;100271.84;;;20.49;55.34
11648;BME280;5880;52.342;9.662;2022-09-09T01:42:34;100266.38;;;20.44;55.39
11648;BME280;5880;52.342;9.662;2022-09-09T01:45:00;100273.06;;;20.43;55.52
11648;BME280;5880;52.342;9.662;2022-09-09T01:47:26;100275.19;;;20.46;55.55
11648;BME280;5880;52.342;9.662;2022-09-09T01:49:52;100274.38;;;20.45;55.30
11648;BME280;5880;52.342;9.662;2022-09-09T01:52:18;100275.81;;;20.43;55.37
11648;BME280;5880;52.342;9.662;2022-09-09T01:54:43;100272.25;;;20.42;55.16
11648;BME280;5880;52.342;9.662;2022-09-09T01:57:24;100271.09;;;20.43;55.61
11648;BME280;5880;52.342;9.662;2022-09-09T02:00:10;100283.63;;;20.41;55.22
11648;BME280;5880;52.342;9.662;2022-09-09T02:03:23;100286.22;;;20.37;55.66
11648;BME280;5880;52.342;9.662;2022-09-09T02:08:49;100281.25;;;20.34;55.65
11648;BME280;5880;52.342;9.662;2022-09-09T02:11:22;100281.25;;;20.34;55.63
11648;BME280;5880;52.342;9.662;2022-09-09T02:13:53;100277.16;;;20.32;55.60
11648;BME280;5880;52.342;9.662;2022-09-09T02:16:47;100280.16;;;20.35;55.49
11648;BME280;5880;52.342;9.662;2022-09-09T02:19:25;100272.22;;;20.29;55.68
11648;BME280;5880;52.342;9.662;2022-09-09T02:21:56;100281.25;;;20.34;55.82
11648;BME280;5880;52.342;9.662;2022-09-09T02:24:23;100279.63;;;20.33;55.65
11648;BME280;5880;52.342;9.662;2022-09-09T02:26:54;100270.47;;;20.33;55.74
11648;BME280;5880;52.342;9.662;2022-09-09T02:29:36;100270.16;;;20.34;55.65
11648;BME280;5880;52.342;9.662;2022-09-09T02:32:10;100258.56;;;20.32;55.86
11648;BME280;5880;52.342;9.662;2022-09-09T02:34:50;100260.72;;;20.35;55.71
11648;BME280;5880;52.342;9.662;2022-09-09T02:37:22;100259.91;;;20.35;55.62
11648;BME280;5880;52.342;9.662;2022-09-09T02:39:50;100267.09;;;20.36;55.94
11648;BME280;5880;52.342;9.662;2022-09-09T02:42:16;100265.13;;;20.36;55.97
11648;BME280;5880;52.342;9.662;2022-09-09T02:44:42;100261.34;;;20.32;55.94
11648;BME280;5880;52.342;9.662;2022-09-09T02:47:34;100272.63;;;20.36;55.79
11648;BME280;5880;52.342;9.662;2022-09-09T02:53:06;100275.22;;;20.32;55.83
11648;BME280;5880;52.342;9.662;2022-09-09T02:55:41;100267.28;;;20.26;55.89
11648;BME280;5880;52.342;9.662;2022-09-09T02:58:15;100267.28;;;20.26;55.86
11648;BME280;5880;52.342;9.662;2022-09-09T03:00:49;100263.88;;;20.29;55.76
11648;BME280;5880;52.342;9.662;2022-09-09T03:03:17;100268.63;;;20.28;55.91
11648;BME280;5880;52.342;9.662;2022-09-09T03:05:45;100274.88;;;20.34;56.05
11648;BME280;5880;52.342;9.662;2022-09-09T03:08:12;100266.38;;;20.30;56.01
11648;BME280;5880;52.342;9.662;2022-09-09T03:10:38;100272.94;;;20.34;55.93
11648;BME280;5880;52.342;9.662;2022-09-09T03:13:04;100275.94;;;20.38;56.20
11648;BME280;5880;52.342;9.662;2022-09-09T03:15:32;100285.59;;;20.40;56.22
11648;BME280;5880;52.342;9.662;2022-09-09T03:17:58;100285.59;;;20.40;56.29
11648;BME280;5880;52.342;9.662;2022-09-09T03:20:27;100288.06;;;20.42;55.92
11648;BME280;5880;52.342;9.662;2022-09-09T03:22:54;100281.19;;;20.39;56.32
11648;BME280;5880;52.342;9.662;2022-09-09T03:25:20;100278.69;;;20.38;56.13
11648;BME280;5880;52.342;9.662;2022-09-09T03:27:46;100274.78;;;20.39;56.06
11648;BME280;5880;52.342;9.662;2022-09-09T03:30:12;100278.31;;;20.44;56.10
11648;BME280;5880;52.342;9.662;2022-09-09T03:32:38;100273.56;;;20.45;56.04
11648;BME280;5880;52.342;9.662;2022-09-09T03:35:04;100275.00;;;20.42;56.41
11648;BME280;5880;52.342;9.662;2022-09-09T03:37:30;100275.81;;;20.43;56.16
11648;BME280;5880;52.342;9.662;2022-09-09T03:39:57;100273.69;;;20.40;56.17
11648;BME280;5880;52.342;9.662;2022-09-09T03:42:22;100266.38;;;20.44;56.31
11648;BME280;5880;52.342;9.662;2022-09-09T03:44:48;100254.78;;;20.42;56.35
11648;BME280;5880;52.342;9.662;2022-09-09T03:47:20;100272.66;;;20.50;56.30
11648;BME280;5880;52.342;9.662;2022-09-09T03:49:47;100271.50;;;20.51;56.31
11648;BME280;5880;52.342;9.662;2022-09-09T03:52:14;100270.41;;;20.52;56.74
11648;BME280;5880;52.342;9.662;2022-09-09T03:54:41;100266.47;;;20.53;56.48
11648;BME280;5880;52.342;9.662;2022-09-09T03:57:11;100267.81;;;20.55;56.72
11648;BME280;5880;52.342;9.662;2022-09-09T03:59:37;100279.25;;;20.54;56.88
11648;BME280;5880;52.342;9.662;2022-09-09T04:02:03;100268.13;;;20.54;56.82
11648;BME280;5880;52.342;9.662;2022-09-09T04:04:29;100274.72;;;20.58;56.46
11648;BME280;5880;52.342;9.662;2022-09-09T04:06:55;100267.53;;;20.57;56.83
11648;BME280;5880;52.342;9.662;2022-09-09T04:09:21;100269.91;;;20.63;56.89
11648;BME280;5880;52.342;9.662;2022-09-09T04:11:46;100273.81;;;20.62;56.70
11648;BME280;5880;52.342;9.662;2022-09-09T04:14:13;100273.72;;;20.68;56.92
11648;BME280;5880;52.342;9.662;2022-09-09T04:16:39;100261.88;;;20.62;56.80
11648;BME280;5880;52.342;9.662;2022-09-09T04:19:05;100271.97;;;20.72;56.96
11648;BME280;5880;52.342;9.662;2022-09-09T04:21:32;100269.81;;;20.69;56.83
11648;BME280;5880;52.342;9.662;2022-09-09T04:23:58;100268.66;;;20.70;56.91
11648;BME280;5880;52.342;9.662;2022-09-09T04:26:24;100268.38;;;20.71;56.98
11648;BME280;5880;52.342;9.662;2022-09-09T04:28:50;100263.63;;;20.72;56.92
11648;BME280;5880;52.342;9.662;2022-09-09T04:31:21;100273.50;;;20.78;56.57
11648;BME280;5880;52.342;9.662;2022-09-09T04:33:50;100274.94;;;20.75;56.71
11648;BME280;5880;52.342;9.662;2022-09-09T04:36:17;100281.03;;;20.77;56.75
11648;BME280;5880;52.342;9.662;2022-09-09T04:38:45;100265.88;;;20.70;56.77
11648;BME280;5880;52.342;9.662;2022-09-09T04:41:12;100276.69;;;20.71;56.95
11648;BME280;5880;52.342;9.662;2022-09-09T04:43:39;100271.25;;;20.66;56.98
11648;BME280;5880;52.342;9.662;2022-09-09T04:46:05;100284.50;;;20.69;57.08
11648;BME280;5880;52.342;9.662;2022-09-09T04:48:32;100284.00;;;20.67;56.92
11648;BME280;5880;52.342;9.662;2022-09-09T04:51:06;100290.88;;;20.70;56.97
11648;BME280;5880;52.342;9.662;2022-09-09T04:53:33;100293.66;;;20.70;57.05
11648;BME280;5880;52.342;9.662;2022-09-09T04:56:11;100288.31;;;20.73;56.93
11648;BME280;5880;52.342;9.662;2022-09-09T04:58:39;100284.41;;;20.74;56.99
11648;BME280;5880;52.342;9.662;2022-09-09T05:01:19;100289.88;;;20.79;56.94
11648;BME280;5880;52.342;9.662;2022-09-09T05:03:47;100287.41;;;20.78;56.94
11648;BME280;5880;52.342;9.662;2022-09-09T05:06:19;100287.09;;;20.79;57.20
11648;BME280;5880;52.342;9.662;2022-09-09T05:08:45;100288.72;;;20.80;57.00
11648;BME280;5880;52.342;9.662;2022-09-09T05:11:21;100290.16;;;20.78;56.95
11648;BME280;5880;52.342;9.662;2022-09-09T05:13:48;100287.41;;;20.78;56.99
11648;BME280;5880;52.342;9.662;2022-09-09T05:16:16;100303.31;;;20.86;56.81
11648;BME280;5880;52.342;9.662;2022-09-09T05:18:43;100301.69;;;20.85;57.02
11648;BME280;5880;52.342;9.662;2022-09-09T05:21:13;100301.06;;;20.88;56.83
11648;BME280;5880;52.342;9.662;2022-09-09T05:23:39;100307.66;;;20.92;56.82
11648;BME280;5880;52.342;9.662;2022-09-09T05:26:08;100303.44;;;20.95;56.91
11648;BME280;5880;52.342;9.662;2022-09-09T05:28:36;100306.00;;;20.91;56.96
11648;BME280;5880;52.342;9.662;2022-09-09T05:31:06;100310.31;;;20.97;56.98
11648;BME280;5880;52.342;9.662;2022-09-09T05:33:37;100302.09;;;20.92;56.82
11648;BME280;5880;52.342;9.662;2022-09-09T05:36:12;100317.19;;;21.00;56.90
11648;BME280;5880;52.342;9.662;2022-09-09T05:38:42;100317.53;;;20.98;57.02
11648;BME280;5880;52.342;9.662;2022-09-09T05:41:09;100306.44;;;20.98;57.03
11648;BME280;5880;52.342;9.662;2022-09-09T05:43:37;100308.88;;;21.00;56.91
11648;BME280;5880;52.342;9.662;2022-09-09T05:46:09;100310.84;;;20.99;56.82
11648;BME280;5880;52.342;9.662;2022-09-09T05:48:41;100319.69;;;21.01;56.65
11648;BME280;5880;52.342;9.662;2022-09-09T05:51:11;100322.47;;;21.01;57.01
11648;BME280;5880;52.342;9.662;2022-09-09T05:53:38;100318.34;;;20.99;56.99
11648;BME280;5880;52.342;9.662;2022-09-09T05:56:10;100318.06;;;21.00;57.00
11648;BME280;5880;52.342;9.662;2022-09-09T05:58:37;100315.88;;;20.97;57.07
11648;BME280;5880;52.342;9.662;2022-09-09T06:01:09;100312.16;;;21.02;56.95
11648;BME280;5880;52.342;9.662;2022-09-09T06:03:40;100314.44;;;21.00;57.11
11648;BME280;5880;52.342;9.662;2022-09-09T06:06:10;100319.16;;;20.99;57.11
11648;BME280;5880;52.342;9.662;2022-09-09T06:08:39;100309.38;;;21.02;57.09
11648;BME280;5880;52.342;9.662;2022-09-09T06:11:14;100307.75;;;21.01;56.96
11648;BME280;5880;52.342;9.662;2022-09-09T06:13:41;100303.13;;;20.96;57.19
11648;BME280;5880;52.342;9.662;2022-09-09T06:16:10;100316.78;;;21.06;57.20
11648;BME280;5880;52.342;9.662;2022-09-09T06:18:40;100322.47;;;21.01;57.19
11648;BME280;5880;52.342;9.662;2022-09-09T06:21:11;100320.38;;;21.07;57.05
11648;BME280;5880;52.342;9.662;2022-09-09T06:23:39;100316.59;;;21.03;57.29
11648;BME280;5880;52.342;9.662;2022-09-09T06:26:20;100321.53;;;21.06;57.25
11648;BME280;5880;52.342;9.662;2022-09-09T06:28:48;100318.88;;;21.01;57.28
11648;BME280;5880;52.342;9.662;2022-09-09T06:31:17;100320.50;;;21.02;57.46
11648;BME280;5880;52.342;9.662;2022-09-09T06:33:46;100316.09;;;21.01;57.48
11648;BME280;5880;52.342;9.662;2022-09-09T06:36:17;100317.41;;;21.03;57.60
11648;BME280;5880;52.342;9.662;2022-09-09T06:38:44;100312.69;;;21.04;57.43
11648;BME280;5880;52.342;9.662;2022-09-09T06:41:12;100316.28;;;21.04;57.71
11648;BME280;5880;52.342;9.662;2022-09-09T06:43:38;100313.72;;;21.08;57.48
11648;BME280;5880;52.342;9.662;2022-09-09T06:46:08;100314.22;;;21.10;57.77
11648;BME280;5880;52.342;9.662;2022-09-09T06:48:34;100306.72;;;21.11;57.74
11648;BME280;5880;52.342;9.662;2022-09-09T06:51:05;100311.53;;;21.19;58.03
11648;BME280;5880;52.342;9.662;2022-09-09T06:53:34;100310.72;;;21.18;57.88
11648;BME280;5880;52.342;9.662;2022-09-09T06:56:20;100308.66;;;21.24;57.65
11648;BME280;5880;52.342;9.662;2022-09-09T06:58:52;100320.16;;;21.31;58.11
11648;BME280;5880;52.342;9.662;2022-09-09T07:01:21;100316.25;;;21.32;58.21
11648;BME280;5880;52.342;9.662;2022-09-09T07:03:51;100312.81;;;21.35;57.99
11648;BME280;5880;52.342;9.662;2022-09-09T07:06:20;100316.88;;;21.43;58.27
11648;BME280;5880;52.342;9.662;2022-09-09T07:08:52;100315.31;;;21.50;58.41
11648;BME280;5880;52.342;9.662;2022-09-09T07:11:22;100306.97;;;21.50;58.35
11648;BME280;5880;52.342;9.662;2022-09-09T07:13:49;100311.47;;;21.60;58.67
11648;BME280;5880;52.342;9.662;2022-09-09T07:16:18;100324.63;;;21.68;58.54
11648;BME280;5880;52.342;9.662;2022-09-09T07:18:45;100318.13;;;21.73;58.41
11648;BME280;5880;52.342;9.662;2022-09-09T07:21:14;100310.78;;;21.77;58.56
11648;BME280;5880;52.342;9.662;2022-09-09T07:23:41;100320.34;;;21.85;58.69
11648;BME280;5880;52.342;9.662;2022-09-09T07:26:16;100320.72;;;21.92;58.38
11648;BME280;5880;52.342;9.662;2022-09-09T07:28:43;100319.59;;;21.93;58.52
11648;BME280;5880;52.342;9.662;2022-09-09T07:31:22;100327.19;;;22.01;58.46
11648;BME280;5880;52.342;9.662;2022-09-09T07:33:48;100322.13;;;22.03;58.39
11648;BME280;5880;52.342;9.662;2022-09-09T07:36:23;100319.72;;;22.10;58.20
11648;BME280;5880;52.342;9.662;2022-09-09T07:38:56;100323.81;;;22.13;58.26
11648;BME280;5880;52.342;9.662;2022-09-09T07:41:35;100324.00;;;22.17;58.36
11648;BME280;5880;52.342;9.662;2022-09-09T07:44:09;100315.34;;;22.18;58.29
11648;BME280;5880;52.342;9.662;2022-09-09T07:46:37;100323.06;;;22.21;58.25
11648;BME280;5880;52.342;9.662;2022-09-09T07:49:04;100326.06;;;22.25;58.28
11648;BME280;5880;52.342;9.662;2022-09-09T07:51:37;100321.16;;;22.30;58.28
11648;BME280;5880;52.342;9.662;2022-09-09T07:54:07;100329.38;;;22.36;58.17
11648;BME280;5880;52.342;9.662;2022-09-09T07:56:35;100327.91;;;22.38;58.08
11648;BME280;5880;52.342;9.662;2022-09-09T07:59:02;100331.41;;;22.44;58.11
11648;BME280;5880;52.342;9.662;2022-09-09T08:01:32;100329.28;;;22.49;58.08
11648;BME280;5880;52.342;9.662;2022-09-09T08:04:08;100333.59;;;22.55;58.12
11648;BME280;5880;52.342;9.662;2022-09-09T08:06:39;100329.66;;;22.57;57.92
11648;BME280;5880;52.342;9.662;2022-09-09T08:09:07;100326.25;;;22.60;57.89
11648;BME280;5880;52.342;9.662;2022-09-09T08:11:34;100334.63;;;22.68;57.99
11648;BME280;5880;52.342;9.662;2022-09-09T08:14:02;100332.53;;;22.74;57.71
11648;BME280;5880;52.342;9.662;2022-09-09T08:16:32;100338.78;;;22.80;57.75
11648;BME280;5880;52.342;9.662;2022-09-09T08:18:59;100331.59;;;22.79;57.52
11648;BME280;5880;52.342;9.662;2022-09-09T08:21:29;100328.97;;;22.82;57.45
11648;BME280;5880;52.342;9.662;2022-09-09T08:23:56;100337.16;;;22.87;57.33
11648;BME280;5880;52.342;9.662;2022-09-09T08:26:28;100335.38;;;22.91;57.27
11648;BME280;5880;52.342;9.662;2022-09-09T08:28:57;100337.22;;;22.96;57.25
11648;BME280;5880;52.342;9.662;2022-09-09T08:31:26;100329.50;;;22.93;57.20
11648;BME280;5880;52.342;9.662;2022-09-09T08:33:57;100337.22;;;22.96;56.98
11648;BME280;5880;52.342;9.662;2022-09-09T08:36:28;100345.56;;;22.96;56.97
11648;BME280;5880;52.342;9.662;2022-09-09T08:38:56;100348.56;;;23.00;56.67
11648;BME280;5880;52.342;9.662;2022-09-09T08:47:38;100352.19;;;23.00;56.65
11648;BME280;5880;52.342;9.662;2022-09-09T08:52:59;100366.78;;;23.06;56.67
11648;BME280;5880;52.342;9.662;2022-09-09T08:58:33;100376.94;;;23.10;56.65
11648;BME280;5880;52.342;9.662;2022-09-09T09:12:02;100359.75;;;23.17;56.44
11648;BME280;5880;52.342;9.662;2022-09-09T09:14:37;100362.41;;;23.22;56.37
11648;BME280;5880;52.342;9.662;2022-09-09T09:17:11;100361.28;;;23.23;56.21
11648;BME280;5880;52.342;9.662;2022-09-09T09:19:49;100373.56;;;23.31;55.95
11648;BME280;5880;52.342;9.662;2022-09-09T09:22:52;100371.59;;;23.31;56.20
11648;BME280;5880;52.342;9.662;2022-09-09T09:25:27;100378.50;;;23.34;56.14
11648;BME280;5880;52.342;9.662;2022-09-09T09:28:02;100379.50;;;23.38;56.05
11648;BME280;5880;52.342;9.662;2022-09-09T09:31:08;100372.44;;;23.41;55.95
11648;BME280;5880;52.342;9.662;2022-09-09T09:33:50;100368.53;;;23.42;55.99
11648;BME280;5880;52.342;9.662;2022-09-09T09:36:20;100361.47;;;23.44;55.89
11648;BME280;5880;52.342;9.662;2022-09-09T09:39:00;100365.75;;;23.50;55.94
11648;BME280;5880;52.342;9.662;2022-09-09T09:41:33;100366.75;;;23.54;55.99
11648;BME280;5880;52.342;9.662;2022-09-09T09:44:01;100364.25;;;23.53;55.64
11648;BME280;5880;52.342;9.662;2022-09-09T09:46:27;100356.06;;;23.56;55.76
11648;BME280;5880;52.342;9.662;2022-09-09T09:49:02;100358.53;;;23.67;55.83
11648;BME280;5880;52.342;9.662;2022-09-09T09:51:31;100352.47;;;23.65;55.76
11648;BME280;5880;52.342;9.662;2022-09-09T09:54:29;100370.06;;;23.74;55.44
11648;BME280;5880;52.342;9.662;2022-09-09T09:56:55;100360.25;;;23.76;55.53
11648;BME280;5880;52.342;9.662;2022-09-09T10:02:06;100355.63;;;23.89;55.44
11648;BME280;5880;52.342;9.662;2022-09-09T10:04:39;100351.03;;;23.93;55.17
11648;BME280;5880;52.342;9.662;2022-09-09T10:07:21;100349.72;;;23.99;55.11
11648;BME280;5880;52.342;9.662;2022-09-09T10:09:56;100349.88;;;24.03;54.91
11648;BME280;5880;52.342;9.662;2022-09-09T10:12:50;100358.09;;;24.08;54.76
11648;BME280;5880;52.342;9.662;2022-09-09T10:15:59;100358.59;;;24.10;54.83
11648;BME280;5880;52.342;9.662;2022-09-09T10:18:58;100346.09;;;24.08;54.68
11648;BME280;5880;52.342;9.662;2022-09-09T10:21:46;100363.50;;;24.13;54.54
11648;BME280;5880;52.342;9.662;2022-09-09T10:24:38;100356.78;;;24.14;54.25
11648;BME280;5880;52.342;9.662;2022-09-09T10:27:50;100357.28;;;24.16;54.20
11648;BME280;5880;52.342;9.662;2022-09-09T10:30:29;100357.91;;;24.13;54.23
11648;BME280;5880;52.342;9.662;2022-09-09T10:33:10;100353.50;;;24.12;54.05
11648;BME280;5880;52.342;9.662;2022-09-09T10:36:07;100350.69;;;24.12;53.80
11648;BME280;5880;52.342;9.662;2022-09-09T10:38:43;100354.16;;;24.09;53.82
11648;BME280;5880;52.342;9.662;2022-09-09T10:41:20;100334.63;;;24.00;53.56
11648;BME280;5880;52.342;9.662;2022-09-09T10:50:18;100356.47;;;23.98;53.76
11648;BME280;5880;52.342;9.662;2022-09-09T10:55:56;100372.22;;;23.94;53.58
11648;BME280;5880;52.342;9.662;2022-09-09T10:58:35;100356.28;;;23.95;53.26
11648;BME280;5880;52.342;9.662;2022-09-09T11:01:15;100359.91;;;23.95;53.39
11648;BME280;5880;52.342;9.662;2022-09-09T11:03:58;100353.66;;;23.90;53.42
11648;BME280;5880;52.342;9.662;2022-09-09T11:06:41;100376.47;;;23.92;53.50
11648;BME280;5880;52.342;9.662;2022-09-09T11:09:19;100389.28;;;23.84;53.36
11648;BME280;5880;52.342;9.662;2022-09-09T11:11:57;100376.81;;;23.82;53.57
11648;BME280;5880;52.342;9.662;2022-09-09T11:14:55;100365.63;;;23.73;53.67
11648;BME280;5880;52.342;9.662;2022-09-09T11:17:31;100360.84;;;23.65;53.95
11648;BME280;5880;52.342;9.662;2022-09-09T11:19:59;100363.28;;;23.57;53.96
11648;BME280;5880;52.342;9.662;2022-09-09T11:22:34;100354.59;;;23.50;54.01
11648;BME280;5880;52.342;9.662;2022-09-09T11:25:10;100364.44;;;23.48;53.80
11648;BME280;5880;52.342;9.662;2022-09-09T11:33:40;100396.19;;;23.21;53.84
11648;BME280;5880;52.342;9.662;2022-09-09T11:37:29;100392.34;;;23.08;53.70
11648;BME280;5880;52.342;9.662;2022-09-09T11:42:39;100381.22;;;22.76;53.16
11648;BME280;5880;52.342;9.662;2022-09-09T11:45:24;100383.50;;;22.74;53.07
11648;BME280;5880;52.342;9.662;2022-09-09T11:47:53;100381.81;;;22.65;53.21
11648;BME280;5880;52.342;9.662;2022-09-09T11:52:48;100370.25;;;22.49;53.16
11648;BME280;5880;52.342;9.662;2022-09-09T11:55:34;100370.91;;;22.46;53.12
11648;BME280;5880;52.342;9.662;2022-09-09T12:00:41;100374.44;;;22.38;53.61
11648;BME280;5880;52.342;9.662;2022-09-09T12:03:48;100362.78;;;22.36;53.50
11648;BME280;5880;52.342;9.662;2022-09-09T12:06:46;100358.69;;;22.33;53.51
11648;BME280;5880;52.342;9.662;2022-09-09T12:15:15;100355.09;;;22.32;54.10
11648;BME280;5880;52.342;9.662;2022-09-09T12:26:37;100361.31;;;22.61;55.07
11648;BME280;5880;52.342;9.662;2022-09-09T12:29:38;100365.16;;;22.73;55.23
11648;BME280;5880;52.342;9.662;2022-09-09T12:32:16;100369.78;;;22.87;55.62
11648;BME280;5880;52.342;9.662;2022-09-09T12:34:47;100368.09;;;23.00;55.69
11648;BME280;5880;52.342;9.662;2022-09-09T12:37:35;100370.41;;;23.15;55.67
11648;BME280;5880;52.342;9.662;2022-09-09T12:40:25;100359.28;;;23.24;55.57
11648;BME280;5880;52.342;9.662;2022-09-09T12:42:51;100353.56;;;23.29;55.51
11648;BME280;5880;52.342;9.662;2022-09-09T12:45:20;100350.97;;;23.41;55.48
11648;BME280;5880;52.342;9.662;2022-09-09T12:48:08;100354.44;;;23.47;55.08
11648;BME280;5880;52.342;9.662;2022-09-09T12:50:44;100354.28;;;23.52;54.95
11648;BME280;5880;52.342;9.662;2022-09-09T12:55:52;100352.63;;;23.59;54.61
11648;BME280;5880;52.342;9.662;2022-09-09T12:58:19;100353.13;;;23.62;54.71
11648;BME280;5880;52.342;9.662;2022-09-09T13:00:54;100338.50;;;23.65;54.63
11648;BME280;5880;52.342;9.662;2022-09-09T13:03:24;100342.47;;;23.64;54.50
11648;BME280;5880;52.342;9.662;2022-09-09T13:05:51;100344.47;;;23.72;54.50
11648;BME280;5880;52.342;9.662;2022-09-09T13:08:19;100337.72;;;23.73;54.54
11648;BME280;5880;52.342;9.662;2022-09-09T13:11:04;100345.44;;;23.76;54.01
11648;BME280;5880;52.342;9.662;2022-09-09T13:13:40;100344.63;;;23.75;54.11
11648;BME280;5880;52.342;9.662;2022-09-09T13:16:19;100337.94;;;23.76;54.42
11648;BME280;5880;52.342;9.662;2022-09-09T13:18:45;100337.53;;;23.69;54.54
11648;BME280;5880;52.342;9.662;2022-09-09T13:21:12;100336.41;;;23.70;54.29
11648;BME280;5880;52.342;9.662;2022-09-09T13:23:38;100336.72;;;23.69;54.21
11648;BME280;5880;52.342;9.662;2022-09-09T13:26:20;100343.81;;;23.75;54.02
11648;BME280;5880;52.342;9.662;2022-09-09T13:28:47;100334.28;;;23.67;54.32
11648;BME280;5880;52.342;9.662;2022-09-09T13:31:29;100334.44;;;23.71;54.31
11648;BME280;5880;52.342;9.662;2022-09-09T13:33:55;100322.63;;;23.65;54.39
11648;BME280;5880;52.342;9.662;2022-09-09T13:36:33;100317.22;;;23.60;54.01
11648;BME280;5880;52.342;9.662;2022-09-09T13:39:03;100315.72;;;23.63;54.34
11648;BME280;5880;52.342;9.662;2022-09-09T13:41:51;100316.88;;;23.62;54.05
11648;BME280;5880;52.342;9.662;2022-09-09T13:44:27;100312.75;;;23.59;54.24
11648;BME280;5880;52.342;9.662;2022-09-09T13:47:19;100310.47;;;23.61;54.22
11648;BME280;5880;52.342;9.662;2022-09-09T13:49:45;100307.03;;;23.55;54.26
11648;BME280;5880;52.342;9.662;2022-09-09T13:52:13;100301.94;;;23.57;54.43
11648;BME280;5880;52.342;9.662;2022-09-09T13:54:40;100306.88;;;23.60;54.25
11648;BME280;5880;52.342;9.662;2022-09-09T13:57:20;100305.06;;;23.56;54.30
11648;BME280;5880;52.342;9.662;2022-09-09T13:59:47;100306.38;;;23.58;54.25
11648;BME280;5880;52.342;9.662;2022-09-09T14:02:14;100304.56;;;23.54;54.34
11648;BME280;5880;52.342;9.662;2022-09-09T14:04:39;100311.94;;;23.58;54.51
11648;BME280;5880;52.342;9.662;2022-09-09T14:07:12;100308.50;;;23.62;54.28
11648;BME280;5880;52.342;9.662;2022-09-09T14:09:39;100302.41;;;23.59;54.71
11648;BME280;5880;52.342;9.662;2022-09-09T14:12:09;100311.13;;;23.67;54.77
11648;BME280;5880;52.342;9.662;2022-09-09T14:14:35;100307.69;;;23.70;54.62
11648;BME280;5880;52.342;9.662;2022-09-09T14:17:01;100306.53;;;23.71;54.63
11648;BME280;5880;52.342;9.662;2022-09-09T14:19:27;100305.91;;;23.74;54.51
11648;BME280;5880;52.342;9.662;2022-09-09T14:21:52;100304.91;;;23.78;54.32
11648;BME280;5880;52.342;9.662;2022-09-09T14:24:18;100298.88;;;23.76;54.33
11648;BME280;5880;52.342;9.662;2022-09-09T14:26:44;100296.53;;;23.78;54.28
11648;BME280;5880;52.342;9.662;2022-09-09T14:29:10;100289.47;;;23.81;54.28
11648;BME280;5880;52.342;9.662;2022-09-09T14:31:35;100297.34;;;23.88;54.36
11648;BME280;5880;52.342;9.662;2022-09-09T14:34:01;100279.31;;;23.85;54.40
11648;BME280;5880;52.342;9.662;2022-09-09T14:36:26;100292.59;;;23.97;54.62
11648;BME280;5880;52.342;9.662;2022-09-09T14:38:52;100294.75;;;24.00;54.44
11648;BME280;5880;52.342;9.662;2022-09-09T14:41:19;100290.78;;;24.10;54.56
11648;BME280;5880;52.342;9.662;2022-09-09T14:43:48;100289.44;;;24.16;54.59
11648;BME280;5880;52.342;9.662;2022-09-09T14:46:16;100285.00;;;24.23;54.32
11648;BME280;5880;52.342;9.662;2022-09-09T14:48:43;100288.09;;;24.31;53.88
11648;BME280;5880;52.342;9.662;2022-09-09T14:51:24;100292.81;;;24.39;54.03
11648;BME280;5880;52.342;9.662;2022-09-09T14:53:57;100287.53;;;24.46;53.89
11648;BME280;5880;52.342;9.662;2022-09-09T14:56:27;100283.78;;;24.51;54.32
11648;BME280;5880;52.342;9.662;2022-09-09T14:58:54;100274.38;;;24.55;53.90
11648;BME280;5880;52.342;9.662;2022-09-09T15:01:21;100290.63;;;24.62;53.95
11648;BME280;5880;52.342;9.662;2022-09-09T15:03:54;100279.78;;;24.60;53.37
11648;BME280;5880;52.342;9.662;2022-09-09T15:06:23;100287.16;;;24.65;53.44
11648;BME280;5880;52.342;9.662;2022-09-09T15:08:52;100285.22;;;24.66;53.37
11648;BME280;5880;52.342;9.662;2022-09-09T15:11:19;100281.25;;;24.67;53.20